createdAt,value
2018-10-19T00:00:40.183Z,15.35
2018-10-19T00:01:50.503Z,15.31
2018-10-19T00:03:00.703Z,15.38
2018-10-19T00:04:11.047Z,15.27
2018-10-19T00:05:21.987Z,15.27
2018-10-19T00:06:32.067Z,15.33
2018-10-19T00:07:41.881Z,15.18
2018-10-19T00:08:51.163Z,15.27
2018-10-19T00:10:01.398Z,15.3
2018-10-19T00:11:11.769Z,15.23
2018-10-19T00:12:22.097Z,15.27
2018-10-19T00:13:32.255Z,15.22
2018-10-19T00:14:42.341Z,15.26
2018-10-19T00:15:52.430Z,15.34
2018-10-19T00:17:02.660Z,15.25
2018-10-19T00:18:13.030Z,15.25
2018-10-19T00:19:22.870Z,15.23
2018-10-19T00:20:32.692Z,15.26
2018-10-19T00:21:42.559Z,15.26
2018-10-19T00:22:52.413Z,15.18
2018-10-19T00:24:02.235Z,15.12
2018-10-19T00:25:12.069Z,15.12
2018-10-19T00:26:22.153Z,15.12
2018-10-19T00:27:32.312Z,15.1
2018-10-19T00:28:42.392Z,15.07
2018-10-19T00:29:52.530Z,15.12
2018-10-19T00:31:02.810Z,15.12
2018-10-19T00:32:12.864Z,15.12
2018-10-19T00:33:22.942Z,15.08
2018-10-19T00:34:32.737Z,15.16
2018-10-19T00:35:42.809Z,15.08
2018-10-19T00:36:53.239Z,15.13
2018-10-19T00:38:03.614Z,15.13
2018-10-19T00:39:13.967Z,15.08
2018-10-19T00:40:24.354Z,15.15
2018-10-19T00:41:34.437Z,15.12
2018-10-19T00:42:44.257Z,15.13
2018-10-19T00:43:54.123Z,15.12
2018-10-19T00:45:04.159Z,15.16
2018-10-19T00:46:14.558Z,15.04
2018-10-19T00:47:24.688Z,15.1
2018-10-19T00:48:34.509Z,15.02
2018-10-19T00:49:44.324Z,15.02
2018-10-19T00:50:54.478Z,15.04
2018-10-19T00:52:04.712Z,15.08
2018-10-19T00:53:14.851Z,15.05
2018-10-19T00:54:24.768Z,15.04
2018-10-19T00:55:34.854Z,15.05
2018-10-19T00:56:44.955Z,15.08
2018-10-19T00:57:54.751Z,15.01
2018-10-19T00:59:05.107Z,14.98
2018-10-19T01:00:15.454Z,14.93
2018-10-19T01:01:25.573Z,15
2018-10-19T01:02:35.233Z,14.93
2018-10-19T01:03:45.339Z,14.94
2018-10-19T01:04:55.229Z,14.9
2018-10-19T01:06:05.448Z,14.86
2018-10-19T01:07:15.532Z,14.87
2018-10-19T01:08:25.643Z,14.87
2018-10-19T01:09:35.457Z,14.9
2018-10-19T01:10:45.302Z,14.79
2018-10-19T01:11:55.483Z,14.8
2018-10-19T01:13:06.119Z,14.8
2018-10-19T01:14:16.207Z,14.83
2018-10-19T01:15:26.286Z,14.75
2018-10-19T01:16:36.409Z,14.8
2018-10-19T01:17:46.483Z,14.8
2018-10-19T01:18:56.612Z,14.82
2018-10-19T01:20:06.795Z,14.74
2018-10-19T01:21:17.148Z,14.7
2018-10-19T01:22:27.213Z,14.67
2018-10-19T01:23:37.278Z,14.66
2018-10-19T01:24:47.351Z,14.67
2018-10-19T01:25:57.423Z,14.67
2018-10-19T01:27:07.329Z,14.69
2018-10-19T01:28:17.748Z,14.74
2018-10-19T01:29:27.896Z,14.69
2018-10-19T01:30:37.998Z,14.63
2018-10-19T01:31:48.117Z,14.63
2018-10-19T01:32:58.353Z,14.59
2018-10-19T01:34:09.005Z,14.64
2018-10-19T01:35:19.304Z,14.66
2018-10-19T01:36:29.124Z,14.69
2018-10-19T01:37:38.989Z,14.6
2018-10-19T01:38:49.100Z,14.64
2018-10-19T01:39:59.030Z,14.67
2018-10-19T01:41:09.382Z,14.75
2018-10-19T01:42:19.533Z,14.57
2018-10-19T01:43:29.622Z,14.6
2018-10-19T01:44:39.691Z,14.61
2018-10-19T01:45:49.781Z,14.7
2018-10-19T01:47:00.010Z,14.66
2018-10-19T01:48:11.302Z,14.74
2018-10-19T01:49:21.825Z,14.7
2018-10-19T01:50:31.896Z,14.52
2018-10-19T01:51:41.980Z,14.57
2018-10-19T01:52:51.820Z,14.6
2018-10-19T01:54:01.869Z,14.67
2018-10-19T01:55:11.956Z,14.57
2018-10-19T01:56:21.494Z,14.67
2018-10-19T01:57:31.564Z,14.53
2018-10-19T01:58:41.384Z,14.64
2018-10-19T01:59:51.457Z,14.61
2018-10-19T02:01:01.358Z,14.51
2018-10-19T02:02:11.429Z,14.51
2018-10-19T02:03:21.698Z,14.48
2018-10-19T02:04:31.815Z,14.53
2018-10-19T02:05:41.631Z,14.49
2018-10-19T02:06:51.446Z,14.48
2018-10-19T02:08:01.522Z,14.52
2018-10-19T02:09:11.780Z,14.49
2018-10-19T02:10:22.024Z,14.44
2018-10-19T02:11:32.105Z,14.51
2018-10-19T02:12:42.191Z,14.49
2018-10-19T02:13:52.253Z,14.53
2018-10-19T02:15:02.324Z,14.53
2018-10-19T02:16:12.362Z,14.45
2018-10-19T02:17:22.180Z,14.46
2018-10-19T02:18:32.256Z,14.51
2018-10-19T02:19:42.352Z,14.52
2018-10-19T02:20:52.437Z,14.57
2018-10-19T02:22:02.764Z,14.52
2018-10-19T02:23:12.860Z,14.52
2018-10-19T02:24:23.170Z,14.52
2018-10-19T02:25:32.965Z,14.45
2018-10-19T02:26:42.786Z,14.49
2018-10-19T02:27:52.842Z,14.48
2018-10-19T02:29:04.824Z,14.45
2018-10-19T02:30:14.812Z,14.49
2018-10-19T02:31:24.905Z,14.48
2018-10-19T02:32:34.971Z,14.49
2018-10-19T02:33:44.541Z,14.53
2018-10-19T02:34:54.362Z,14.6
2018-10-19T02:36:04.803Z,14.57
2018-10-19T02:37:15.148Z,14.59
2018-10-19T02:38:25.215Z,14.49
2018-10-19T02:39:35.290Z,14.59
2018-10-19T02:40:45.104Z,14.59
2018-10-19T02:41:54.906Z,14.6
2018-10-19T02:43:05.113Z,14.53
2018-10-19T02:44:15.175Z,14.57
2018-10-19T02:45:25.042Z,14.59
2018-10-19T02:46:35.121Z,14.59
2018-10-19T02:47:45.216Z,14.64
2018-10-19T02:48:55.342Z,14.51
2018-10-19T02:50:05.420Z,14.56
2018-10-19T02:51:15.895Z,14.59
2018-10-19T02:52:26.333Z,14.46
2018-10-19T02:53:36.640Z,14.56
2018-10-19T02:54:46.787Z,14.52
2018-10-19T02:55:56.592Z,14.57
2018-10-19T02:57:07.057Z,14.52
2018-10-19T02:58:17.429Z,14.48
2018-10-19T02:59:27.507Z,14.48
2018-10-19T03:00:37.632Z,14.56
2018-10-19T03:01:47.711Z,14.48
2018-10-19T03:02:57.930Z,14.51
2018-10-19T03:34:42.506Z,12.47
2018-10-19T03:35:52.592Z,12.26
2018-10-19T03:37:02.723Z,12.26
2018-10-19T03:38:12.539Z,12.29
2018-10-19T03:39:22.796Z,12.28
2018-10-19T03:40:32.807Z,12.34
2018-10-19T03:41:42.663Z,12.44
2018-10-19T03:42:52.968Z,12.58
2018-10-19T03:44:03.757Z,12.58
2018-10-19T03:45:14.115Z,12.66
2018-10-19T03:46:24.172Z,12.86
2018-10-19T03:47:34.274Z,12.99
2018-10-19T03:48:44.094Z,13.11
2018-10-19T03:49:54.172Z,13.19
2018-10-19T03:51:04.854Z,13.29
2018-10-19T03:52:14.829Z,13.37
2018-10-19T03:53:24.907Z,13.47
2018-10-19T03:54:34.976Z,13.5
2018-10-19T03:55:45.075Z,13.6
2018-10-19T03:56:54.903Z,13.57
2018-10-19T03:58:07.777Z,13.6
2018-10-19T03:59:18.157Z,13.76
2018-10-19T04:00:28.312Z,13.76
2018-10-19T04:01:38.391Z,13.84
2018-10-19T04:02:48.473Z,13.94
2018-10-19T04:03:58.571Z,13.91
2018-10-19T04:05:08.968Z,13.94
2018-10-19T04:06:19.633Z,13.99
2018-10-19T04:07:29.452Z,14.01
2018-10-19T04:08:39.523Z,14.05
2018-10-19T04:09:49.403Z,14.08
2018-10-19T04:10:59.565Z,14.03
2018-10-19T04:12:09.811Z,14.08
2018-10-19T04:13:19.909Z,14.08
2018-10-19T04:14:29.724Z,14.08
2018-10-19T04:15:39.593Z,14.09
2018-10-19T04:16:49.675Z,14.08
2018-10-19T04:17:59.753Z,14.08
2018-10-19T04:19:09.839Z,14.11
2018-10-19T04:20:19.668Z,14.11
2018-10-19T04:21:30.024Z,14.11
2018-10-19T04:22:40.108Z,14.09
2018-10-19T04:23:50.186Z,14.13
2018-10-19T04:25:00.305Z,13.99
2018-10-19T04:26:10.386Z,14.12
2018-10-19T04:27:20.879Z,14.01
2018-10-19T04:28:31.092Z,14.06
2018-10-19T04:29:40.919Z,14.08
2018-10-19T04:30:50.476Z,14.05
2018-10-19T04:32:00.538Z,14.11
2018-10-19T04:33:11.044Z,13.97
2018-10-19T04:34:21.251Z,13.99
2018-10-19T04:35:31.138Z,13.99
2018-10-19T04:36:41.222Z,13.99
2018-10-19T04:37:51.307Z,13.97
2018-10-19T04:39:02.127Z,13.97
2018-10-19T04:40:12.536Z,13.91
2018-10-19T04:41:22.764Z,13.95
2018-10-19T04:42:33.094Z,14.01
2018-10-19T04:43:42.899Z,13.93
2018-10-19T04:44:52.912Z,13.9
2018-10-19T04:46:05.255Z,13.87
2018-10-19T04:47:15.783Z,13.94
2018-10-19T04:48:25.903Z,13.88
2018-10-19T04:49:35.709Z,13.9
2018-10-19T04:50:45.781Z,13.93
2018-10-19T04:51:55.842Z,13.86
2018-10-19T04:53:05.715Z,13.9
2018-10-19T04:54:16.181Z,13.87
2018-10-19T04:55:26.280Z,13.94
2018-10-19T04:56:36.459Z,13.91
2018-10-19T04:57:46.329Z,13.86
2018-10-19T04:58:56.499Z,13.94
2018-10-19T05:00:06.635Z,13.97
2018-10-19T05:01:16.711Z,13.94
2018-10-19T05:02:26.947Z,13.94
2018-10-19T05:03:37.203Z,13.9
2018-10-19T05:04:47.676Z,13.95
2018-10-19T05:05:58.288Z,13.84
2018-10-19T05:07:09.446Z,13.94
2018-10-19T05:08:19.324Z,13.88
2018-10-19T05:09:29.772Z,13.97
2018-10-19T05:10:39.585Z,13.9
2018-10-19T05:11:49.667Z,13.88
2018-10-19T05:13:00.027Z,13.99
2018-10-19T05:14:10.279Z,13.91
2018-10-19T05:15:20.723Z,13.97
2018-10-19T05:16:30.536Z,13.91
2018-10-19T05:17:40.629Z,13.9
2018-10-19T05:18:50.778Z,13.87
2018-10-19T05:20:01.596Z,13.9
2018-10-19T05:21:11.886Z,13.86
2018-10-19T05:22:21.972Z,13.9
2018-10-19T05:23:31.806Z,13.93
2018-10-19T05:24:42.046Z,13.97
2018-10-19T05:25:52.831Z,13.97
2018-10-19T05:27:02.979Z,13.95
2018-10-19T05:28:13.068Z,13.97
2018-10-19T05:29:23.099Z,14.06
2018-10-19T05:30:32.684Z,13.97
2018-10-19T05:31:42.786Z,13.99
2018-10-19T05:32:52.657Z,13.94
2018-10-19T05:34:02.821Z,13.99
2018-10-19T05:35:13.348Z,14.02
2018-10-19T05:36:23.656Z,13.99
2018-10-19T05:37:33.832Z,14.05
2018-10-19T05:38:43.640Z,14.11
2018-10-19T05:39:53.717Z,14.05
2018-10-19T05:41:03.969Z,14.13
2018-10-19T05:42:14.396Z,14.09
2018-10-19T05:43:24.804Z,14.06
2018-10-19T05:44:34.505Z,14.15
2018-10-19T05:45:44.328Z,14.23
2018-10-19T05:46:54.484Z,14.24
2018-10-19T05:48:05.278Z,14.21
2018-10-19T05:49:15.373Z,14.31
2018-10-19T05:50:25.457Z,14.26
2018-10-19T05:51:35.535Z,14.28
2018-10-19T05:52:45.584Z,14.28
2018-10-19T05:53:55.679Z,14.36
2018-10-19T05:55:05.965Z,14.44
2018-10-19T05:56:16.498Z,14.48
2018-10-19T05:57:26.654Z,14.49
2018-10-19T05:58:36.460Z,14.51
2018-10-19T05:59:46.547Z,14.52
2018-10-19T06:00:56.355Z,14.59
2018-10-19T06:02:07.563Z,14.59
2018-10-19T06:03:18.036Z,14.57
2018-10-19T06:04:28.118Z,14.51
2018-10-19T06:05:37.928Z,14.53
2018-10-19T06:06:48.233Z,14.61
2018-10-19T06:07:58.378Z,14.61
2018-10-19T06:09:08.374Z,14.7
2018-10-19T06:10:18.457Z,14.74
2018-10-19T06:11:28.279Z,14.74
2018-10-19T06:12:38.155Z,14.77
2018-10-19T06:13:48.605Z,14.9
2018-10-19T06:14:58.397Z,14.89
2018-10-19T06:16:08.688Z,14.9
2018-10-19T06:17:18.848Z,14.98
2018-10-19T06:18:28.938Z,15.01
2018-10-19T06:19:39.006Z,15.04
2018-10-19T06:20:48.815Z,15.08
2018-10-19T06:21:58.671Z,15.13
2018-10-19T06:23:09.083Z,15.12
2018-10-19T06:24:19.546Z,15.2
2018-10-19T06:25:29.621Z,15.26
2018-10-19T06:26:39.865Z,15.3
2018-10-19T06:27:49.966Z,15.3
2018-10-19T06:29:00.172Z,15.35
2018-10-19T06:30:10.542Z,15.38
2018-10-19T06:31:20.354Z,15.44
2018-10-19T06:32:30.164Z,15.43
2018-10-19T06:33:40.461Z,15.45
2018-10-19T06:34:50.943Z,15.53
2018-10-19T06:36:01.128Z,15.6
2018-10-19T06:37:11.184Z,15.65
2018-10-19T06:38:21.446Z,15.63
2018-10-19T06:39:31.625Z,15.73
2018-10-19T06:40:41.851Z,15.78
2018-10-19T06:41:52.134Z,15.88
2018-10-19T06:43:02.237Z,15.88
2018-10-19T06:44:12.561Z,15.91
2018-10-19T06:45:23.009Z,15.95
2018-10-19T06:46:33.254Z,15.98
2018-10-19T06:47:43.609Z,16
2018-10-19T06:48:53.841Z,15.99
2018-10-19T06:50:04.040Z,16.07
2018-10-19T06:51:14.433Z,16.17
2018-10-19T06:52:24.250Z,16.1
2018-10-19T06:53:34.407Z,16.25
2018-10-19T06:54:44.544Z,16.25
2018-10-19T06:55:54.698Z,16.37
2018-10-19T06:57:04.526Z,16.37
2018-10-19T06:58:14.607Z,16.33
2018-10-19T06:59:24.955Z,16.45
2018-10-19T07:00:35.509Z,16.54
2018-10-19T07:01:45.595Z,16.49
2018-10-19T07:02:55.696Z,16.52
2018-10-19T07:04:05.234Z,16.65
2018-10-19T07:05:15.491Z,16.58
2018-10-19T07:06:25.645Z,16.54
2018-10-19T07:07:35.734Z,16.59
2018-10-19T07:08:45.809Z,16.73
2018-10-19T07:09:55.610Z,16.67
2018-10-19T07:11:09.072Z,16.76
2018-10-19T07:12:19.945Z,16.85
2018-10-19T07:13:30.044Z,16.92
2018-10-19T07:14:40.115Z,16.88
2018-10-19T07:15:50.382Z,16.97
2018-10-19T07:17:02.898Z,16.97
2018-10-19T07:18:13.293Z,17
2018-10-19T07:19:23.387Z,17.03
2018-10-19T07:20:33.197Z,17
2018-10-19T07:21:43.649Z,17.09
2018-10-19T07:22:54.363Z,17.1
2018-10-19T07:24:04.551Z,17.07
2018-10-19T07:25:14.364Z,17.15
2018-10-19T07:26:24.438Z,17.15
2018-10-19T07:27:34.519Z,17.27
2018-10-19T07:28:44.719Z,17.22
2018-10-19T07:29:54.949Z,17.31
2018-10-19T07:31:04.837Z,17.27
2018-10-19T07:32:15.063Z,17.4
2018-10-19T07:33:24.908Z,17.42
2018-10-19T07:34:35.033Z,17.39
2018-10-19T07:35:45.128Z,17.5
2018-10-19T07:36:54.937Z,17.49
2018-10-19T07:38:04.959Z,17.62
2018-10-19T07:39:15.365Z,17.68
2018-10-19T07:40:25.441Z,17.73
2018-10-19T07:41:35.274Z,17.71
2018-10-19T07:42:45.124Z,17.76
2018-10-19T07:43:55.314Z,17.9
2018-10-19T07:45:06.039Z,17.86
2018-10-19T07:46:16.158Z,17.94
2018-10-19T07:47:27.009Z,18.02
2018-10-19T07:48:37.780Z,18.06
2018-10-19T07:49:47.343Z,18.17
2018-10-19T07:50:57.160Z,18.16
2018-10-19T07:52:07.038Z,18.21
2018-10-19T07:53:17.510Z,18.17
2018-10-19T07:54:27.476Z,18.32
2018-10-19T07:55:37.776Z,18.38
2018-10-19T07:56:47.855Z,18.29
2018-10-19T07:57:57.929Z,18.45
2018-10-19T07:59:11.280Z,18.44
2018-10-19T08:00:22.219Z,18.42
2018-10-19T08:01:32.141Z,18.56
2018-10-19T08:02:42.225Z,18.53
2018-10-19T08:03:52.408Z,18.53
2018-10-19T08:05:02.637Z,18.63
2018-10-19T08:06:12.975Z,18.56
2018-10-19T08:07:23.036Z,18.63
2018-10-19T08:08:32.629Z,18.65
2018-10-19T08:09:42.774Z,18.72
2018-10-19T08:10:52.888Z,18.75
2018-10-19T08:12:03.106Z,18.71
2018-10-19T08:13:13.178Z,18.71
2018-10-19T08:14:23.243Z,18.78
2018-10-19T08:15:33.419Z,18.81
2018-10-19T08:16:43.236Z,18.75
2018-10-19T08:17:53.316Z,18.84
2018-10-19T08:19:03.147Z,18.81
2018-10-19T08:20:13.613Z,18.79
2018-10-19T08:21:23.898Z,18.79
2018-10-19T08:22:33.983Z,18.78
2018-10-19T08:23:44.060Z,18.87
2018-10-19T08:24:54.147Z,18.9
2018-10-19T08:26:04.151Z,18.97
2018-10-19T08:27:14.537Z,19.09
2018-10-19T08:28:24.747Z,19.06
2018-10-19T08:29:34.826Z,19.19
2018-10-19T08:30:44.932Z,19.23
2018-10-19T08:31:55.155Z,19.3
2018-10-19T08:33:06.391Z,19.28
2018-10-19T08:34:16.466Z,19.43
2018-10-19T08:35:26.586Z,19.4
2018-10-19T08:36:36.664Z,19.45
2018-10-19T08:37:46.471Z,19.52
2018-10-19T08:38:56.613Z,19.57
2018-10-19T08:40:06.457Z,19.5
2018-10-19T08:41:16.903Z,19.61
2018-10-19T08:42:27.257Z,19.7
2018-10-19T08:43:37.323Z,19.65
2018-10-19T08:44:47.198Z,19.78
2018-10-19T08:45:57.034Z,19.87
2018-10-19T08:47:07.415Z,19.83
2018-10-19T08:48:17.827Z,20.02
2018-10-19T08:49:27.915Z,20.04
2018-10-19T08:50:38.213Z,20.11
2018-10-19T08:51:48.312Z,20.1
2018-10-19T08:52:58.469Z,20.16
2018-10-19T08:54:08.889Z,20.12
2018-10-19T08:55:19.124Z,20.08
2018-10-19T08:56:29.255Z,20.1
2018-10-19T08:57:39.134Z,20.15
2018-10-19T08:58:49.376Z,20.19
2018-10-19T08:59:59.790Z,20.2
2018-10-19T09:01:10.135Z,20.29
2018-10-19T09:02:19.953Z,20.38
2018-10-19T09:03:30.173Z,20.38
2018-10-19T09:04:41.317Z,20.34
2018-10-19T09:05:51.387Z,20.44
2018-10-19T09:07:02.357Z,20.35
2018-10-19T09:08:12.557Z,20.49
2018-10-19T09:09:22.654Z,20.48
2018-10-19T09:10:32.787Z,20.51
2018-10-19T09:11:43.089Z,20.58
2018-10-19T09:12:53.819Z,20.54
2018-10-19T09:14:03.694Z,20.53
2018-10-19T09:15:14.164Z,20.63
2018-10-19T09:16:23.886Z,20.54
2018-10-19T09:17:33.971Z,20.58
2018-10-19T09:18:43.765Z,20.53
2018-10-19T09:19:53.581Z,20.63
2018-10-19T09:21:03.862Z,20.6
2018-10-19T09:22:14.443Z,20.68
2018-10-19T09:23:24.276Z,20.79
2018-10-19T09:24:34.084Z,20.82
2018-10-19T09:25:44.153Z,20.81
2018-10-19T09:26:54.234Z,20.88
2018-10-19T09:28:04.583Z,20.96
2018-10-19T09:29:15.130Z,20.94
2018-10-19T09:30:25.303Z,21.01
2018-10-19T09:31:35.504Z,20.98
2018-10-19T09:32:45.612Z,21.08
2018-10-19T09:33:54.900Z,21.22
2018-10-19T09:35:05.487Z,21.25
2018-10-19T09:36:16.762Z,21.21
2018-10-19T09:37:27.485Z,21.23
2018-10-19T09:38:37.302Z,21.19
2018-10-19T09:39:47.383Z,21.27
2018-10-19T09:40:57.874Z,21.31
2018-10-19T09:42:08.754Z,21.37
2018-10-19T09:43:19.371Z,21.37
2018-10-19T09:44:29.461Z,21.4
2018-10-19T09:45:39.610Z,21.34
2018-10-19T09:46:49.865Z,21.41
2018-10-19T09:48:02.883Z,21.41
2018-10-19T09:49:13.860Z,21.51
2018-10-19T09:50:24.057Z,21.55
2018-10-19T09:51:34.154Z,21.48
2018-10-19T09:52:44.293Z,21.53
2018-10-19T09:53:54.113Z,21.58
2018-10-19T09:55:04.174Z,21.61
2018-10-19T09:56:14.699Z,21.53
2018-10-19T09:57:25.155Z,21.58
2018-10-19T09:58:35.251Z,21.55
2018-10-19T09:59:45.348Z,21.56
2018-10-19T10:00:55.565Z,21.61
2018-10-19T10:02:06.702Z,21.64
2018-10-19T10:03:17.518Z,21.58
2018-10-19T10:04:27.708Z,21.62
2018-10-19T10:05:37.795Z,21.7
2018-10-19T10:06:47.888Z,21.76
2018-10-19T10:07:58.309Z,21.85
2018-10-19T10:09:09.363Z,21.85
2018-10-19T10:10:19.845Z,21.86
2018-10-19T10:11:29.931Z,21.89
2018-10-19T10:12:40.023Z,21.93
2018-10-19T10:13:50.110Z,21.93
2018-10-19T10:15:00.614Z,21.96
2018-10-19T10:16:11.336Z,21.93
2018-10-19T10:17:21.163Z,21.93
2018-10-19T10:18:31.256Z,21.97
2018-10-19T10:19:41.317Z,22
2018-10-19T10:20:51.462Z,22.08
2018-10-19T10:22:01.458Z,22.14
2018-10-19T10:23:11.814Z,22.18
2018-10-19T10:24:21.673Z,22.16
2018-10-19T10:25:31.764Z,22.15
2018-10-19T10:26:41.854Z,22.16
2018-10-19T10:27:51.970Z,22.11
2018-10-19T10:29:03.355Z,22.16
2018-10-19T10:30:13.434Z,22.2
2018-10-19T10:31:23.514Z,22.15
2018-10-19T10:32:33.448Z,22.27
2018-10-19T10:33:43.533Z,22.18
2018-10-19T10:34:53.651Z,22.27
2018-10-19T10:36:03.507Z,22.31
2018-10-19T10:37:13.892Z,22.22
2018-10-19T10:38:24.265Z,22.31
2018-10-19T10:39:33.878Z,22.31
2018-10-19T10:40:43.975Z,22.34
2018-10-19T10:41:53.812Z,22.3
2018-10-19T10:43:04.434Z,22.33
2018-10-19T10:44:14.811Z,22.31
2018-10-19T10:45:24.647Z,22.34
2018-10-19T10:46:34.742Z,22.36
2018-10-19T10:47:44.837Z,22.46
2018-10-19T10:48:54.959Z,22.46
2018-10-19T10:50:06.282Z,22.46
2018-10-19T10:51:16.394Z,22.41
2018-10-19T10:52:26.225Z,22.33
2018-10-19T10:53:36.309Z,22.31
2018-10-19T10:54:46.399Z,22.42
2018-10-19T10:55:56.478Z,22.38
2018-10-19T10:57:07.105Z,22.45
2018-10-19T10:58:17.321Z,22.41
2018-10-19T10:59:27.452Z,22.38
2018-10-19T11:00:37.523Z,22.44
2018-10-19T11:01:47.640Z,22.57
2018-10-19T11:02:57.507Z,22.6
2018-10-19T11:04:07.827Z,22.66
2018-10-19T11:05:18.246Z,22.69
2018-10-19T11:06:28.337Z,22.73
2018-10-19T11:07:39.268Z,22.78
2018-10-19T11:08:49.999Z,22.81
2018-10-19T11:09:59.891Z,22.88
2018-10-19T11:11:10.300Z,22.81
2018-10-19T11:12:20.379Z,22.85
2018-10-19T11:13:30.445Z,22.75
2018-10-19T11:14:40.605Z,22.89
2018-10-19T11:15:50.684Z,22.91
2018-10-19T11:17:01.438Z,22.96
2018-10-19T11:18:11.235Z,23
2018-10-19T11:19:21.489Z,23
2018-10-19T11:20:31.375Z,22.97
2018-10-19T11:21:41.491Z,23.06
2018-10-19T11:22:51.562Z,23.07
2018-10-19T11:24:01.818Z,23.14
2018-10-19T11:25:11.985Z,23.14
2018-10-19T11:26:21.982Z,23.21
2018-10-19T11:27:32.071Z,23.21
2018-10-19T11:28:42.186Z,23.32
2018-10-19T11:29:52.257Z,23.28
2018-10-19T11:31:02.317Z,23.22
2018-10-19T11:32:12.660Z,23.28
2018-10-19T11:33:22.573Z,23.35
2018-10-19T11:34:32.421Z,23.4
2018-10-19T11:35:42.495Z,23.37
2018-10-19T11:36:52.598Z,23.38
2018-10-19T11:38:03.015Z,23.47
2018-10-19T11:39:13.096Z,23.45
2018-10-19T11:40:23.018Z,23.44
2018-10-19T11:41:32.846Z,23.53
2018-10-19T11:42:42.648Z,23.48
2018-10-19T11:43:52.774Z,23.57
2018-10-19T11:45:04.146Z,23.59
2018-10-19T11:46:14.648Z,23.7
2018-10-19T11:47:24.763Z,23.64
2018-10-19T11:48:35.118Z,23.63
2018-10-19T11:49:45.391Z,23.67
2018-10-19T11:50:55.233Z,23.7
2018-10-19T11:52:05.364Z,23.74
2018-10-19T11:53:14.933Z,23.66
2018-10-19T11:54:25.019Z,23.66
2018-10-19T11:55:35.107Z,23.82
2018-10-19T11:56:45.218Z,23.82
2018-10-19T11:57:55.359Z,23.89
2018-10-19T11:59:08.621Z,23.85
2018-10-19T12:00:18.728Z,23.92
2018-10-19T12:01:28.873Z,23.94
2018-10-19T12:02:38.697Z,23.97
2018-10-19T12:03:49.022Z,23.97
2018-10-19T12:04:58.980Z,24.04
2018-10-19T12:06:09.066Z,24.04
2018-10-19T12:07:18.632Z,24.14
2018-10-19T12:08:28.709Z,24.19
2018-10-19T12:09:38.807Z,24.14
2018-10-19T12:10:49.444Z,24.19
2018-10-19T12:11:59.765Z,24.14
2018-10-19T12:13:09.849Z,24.26
2018-10-19T12:14:19.925Z,24.3
2018-10-19T12:15:30.012Z,24.17
2018-10-19T12:16:40.140Z,23.9
2018-10-19T12:17:50.844Z,23.96
2018-10-19T12:19:01.500Z,23.9
2018-10-19T12:20:11.567Z,23.93
2018-10-19T12:21:21.850Z,24.11
2018-10-19T12:22:32.245Z,24.17
2018-10-19T12:23:42.068Z,24.32
2018-10-19T12:24:52.205Z,24.32
2018-10-19T12:26:02.275Z,24.33
2018-10-19T12:27:12.911Z,24.33
2018-10-19T12:28:23.182Z,24.29
2018-10-19T12:29:33.274Z,24.34
2018-10-19T12:30:43.179Z,24.46
2018-10-19T12:31:53.009Z,24.42
2018-10-19T12:33:03.305Z,24.39
2018-10-19T12:34:13.578Z,24.3
2018-10-19T12:35:23.541Z,24.33
2018-10-19T12:36:33.917Z,24.3
2018-10-19T12:37:44.029Z,24.3
2018-10-19T12:38:54.172Z,24.24
2018-10-19T12:40:04.385Z,24.15
2018-10-19T12:41:14.868Z,24.15
2018-10-19T12:42:25.324Z,24.02
2018-10-19T12:43:35.425Z,24.07
2018-10-19T12:44:45.533Z,24.03
2018-10-19T12:45:55.609Z,24.03
2018-10-19T12:47:08.662Z,24.04
2018-10-19T12:48:18.569Z,24.02
2018-10-19T12:49:28.649Z,24.09
2018-10-19T12:50:37.956Z,24.18
2018-10-19T12:51:48.250Z,24.11
2018-10-19T12:52:58.339Z,24.12
2018-10-19T12:54:09.461Z,24.17
2018-10-19T12:55:19.545Z,24.22
2018-10-19T12:56:29.117Z,24.15
2018-10-19T12:57:39.487Z,24.19
2018-10-19T12:58:49.737Z,24.14
2018-10-19T12:59:59.620Z,24.17
2018-10-19T13:01:11.555Z,24.14
2018-10-19T13:02:21.945Z,24.15
2018-10-19T13:03:32.184Z,24.19
2018-10-19T13:04:42.676Z,24.24
2018-10-19T13:05:52.518Z,24.26
2018-10-19T13:07:02.864Z,24.26
2018-10-19T13:08:13.140Z,24.19
2018-10-19T13:09:23.444Z,24.11
2018-10-19T13:10:33.543Z,24.21
2018-10-19T13:11:43.437Z,24.22
2018-10-19T13:12:53.588Z,24.26
2018-10-19T13:14:03.544Z,24.29
2018-10-19T13:15:13.974Z,24.33
2018-10-19T13:16:24.537Z,24.22
2018-10-19T13:17:34.696Z,24.29
2018-10-19T13:18:44.812Z,24.32
2018-10-19T13:19:54.912Z,24.36
2018-10-19T13:21:05.262Z,24.34
2018-10-19T13:22:15.375Z,24.32
2018-10-19T13:23:25.624Z,24.3
2018-10-19T13:24:35.726Z,24.29
2018-10-19T13:25:45.819Z,24.33
2018-10-19T13:26:55.970Z,24.29
2018-10-19T13:28:06.391Z,24.3
2018-10-19T13:29:16.572Z,24.33
2018-10-19T13:30:26.412Z,24.3
2018-10-19T13:31:36.534Z,24.17
2018-10-19T13:32:46.648Z,24.14
2018-10-19T13:33:56.745Z,24.08
2018-10-19T13:35:06.598Z,24.09
2018-10-19T13:36:16.992Z,24
2018-10-19T13:37:26.832Z,24.03
2018-10-19T13:38:36.938Z,23.96
2018-10-19T13:39:46.788Z,24.07
2018-10-19T13:40:56.933Z,23.93
2018-10-19T13:42:07.357Z,23.94
2018-10-19T13:43:17.440Z,23.9
2018-10-19T13:44:27.549Z,24
2018-10-19T13:45:37.794Z,24.04
2018-10-19T13:46:47.730Z,23.93
2018-10-19T13:47:57.843Z,23.85
2018-10-19T13:49:10.585Z,23.94
2018-10-19T13:50:20.703Z,23.94
2018-10-19T13:51:30.825Z,23.94
2018-10-19T13:52:41.000Z,23.9
2018-10-19T13:53:51.110Z,23.85
2018-10-19T13:55:01.240Z,23.85
2018-10-19T13:56:11.350Z,23.79
2018-10-19T13:57:21.320Z,23.72
2018-10-19T13:58:31.471Z,23.79
2018-10-19T13:59:41.884Z,23.75
2018-10-19T14:00:51.972Z,23.71
2018-10-19T14:02:02.316Z,23.74
2018-10-19T14:03:12.719Z,23.75
2018-10-19T14:04:22.671Z,23.67
2018-10-19T14:05:33.529Z,23.66
2018-10-19T14:06:44.349Z,23.62
2018-10-19T14:07:54.183Z,23.7
2018-10-19T14:09:05.868Z,23.63
2018-10-19T14:10:16.271Z,23.62
2018-10-19T14:11:26.347Z,23.6
2018-10-19T14:12:36.168Z,23.59
2018-10-19T14:13:46.256Z,23.63
2018-10-19T14:14:56.143Z,23.52
2018-10-19T14:16:05.985Z,23.52
2018-10-19T14:17:16.585Z,23.47
2018-10-19T14:18:26.706Z,23.38
2018-10-19T14:19:36.857Z,23.38
2018-10-19T14:20:46.663Z,23.29
2018-10-19T14:21:56.990Z,23.34
2018-10-19T14:23:07.051Z,23.25
2018-10-19T14:24:17.046Z,23.24
2018-10-19T14:25:27.165Z,23.24
2018-10-19T14:26:37.065Z,23.19
2018-10-19T14:27:47.371Z,23.14
2018-10-19T14:28:57.303Z,23.12
2018-10-19T14:30:09.195Z,23.12
2018-10-19T14:31:19.532Z,23
2018-10-19T14:32:29.620Z,23.06
2018-10-19T14:33:39.726Z,22.96
2018-10-19T14:34:50.330Z,22.92
2018-10-19T14:36:00.376Z,22.92
2018-10-19T14:37:10.581Z,22.97
2018-10-19T14:38:20.423Z,22.91
2018-10-19T14:39:30.296Z,22.94
2018-10-19T14:40:40.406Z,22.86
2018-10-19T14:41:50.252Z,22.79
2018-10-19T14:43:00.461Z,22.71
2018-10-19T14:44:11.009Z,22.67
2018-10-19T14:45:21.158Z,22.69
2018-10-19T14:46:31.248Z,22.59
2018-10-19T14:47:41.096Z,22.6
2018-10-19T14:48:51.370Z,22.57
2018-10-19T14:50:01.055Z,22.55
2018-10-19T14:51:11.544Z,22.45
2018-10-19T14:52:21.949Z,22.49
2018-10-19T14:53:32.075Z,22.42
2018-10-19T14:54:41.761Z,22.34
2018-10-19T14:55:52.196Z,22.31
2018-10-19T14:57:02.639Z,22.27
2018-10-19T14:58:12.981Z,22.24
2018-10-19T14:59:23.208Z,22.16
2018-10-19T15:00:33.454Z,22.12
2018-10-19T15:01:43.560Z,21.99
2018-10-19T15:02:53.790Z,22.02
2018-10-19T15:04:04.815Z,21.96
2018-10-19T15:05:14.902Z,21.96
2018-10-19T15:06:25.330Z,21.89
2018-10-19T15:07:35.420Z,21.82
2018-10-19T15:08:45.250Z,21.77
2018-10-19T15:09:56.291Z,21.85
2018-10-19T15:11:08.223Z,21.78
2018-10-19T15:12:18.740Z,21.78
2018-10-19T15:13:28.581Z,21.71
2018-10-19T15:14:38.485Z,21.64
2018-10-19T15:15:48.331Z,21.62
2018-10-19T15:16:58.165Z,21.56
2018-10-19T15:18:08.518Z,21.56
2018-10-19T15:19:18.857Z,21.46
2018-10-19T15:20:29.003Z,21.51
2018-10-19T15:21:39.110Z,21.46
2018-10-19T15:22:49.217Z,21.41
2018-10-19T15:23:59.340Z,21.31
2018-10-19T15:25:09.556Z,21.27
2018-10-19T15:26:19.387Z,21.23
2018-10-19T15:27:29.537Z,21.16
2018-10-19T15:28:39.660Z,21.19
2018-10-19T15:29:50.535Z,21.09
2018-10-19T15:31:01.273Z,21.08
2018-10-19T15:32:11.166Z,21.03
2018-10-19T15:33:21.351Z,20.9
2018-10-19T15:34:31.530Z,20.97
2018-10-19T15:35:41.610Z,20.97
2018-10-19T15:36:51.715Z,20.79
2018-10-19T15:38:02.235Z,20.79